sensor_id;sensor_type;location;lat;lon;timestamp;P1;durP1;ratioP1;P2;durP2;ratioP2
43678;SDS011;29279;50.858;4.392;2023-04-06T00:01:38;26.17;;;13.13;;
43678;SDS011;29279;50.858;4.392;2023-04-06T00:04:05;21.52;;;11.82;;
43678;SDS011;29279;50.858;4.392;2023-04-06T00:06:31;19.58;;;10.38;;
43678;SDS011;29279;50.858;4.392;2023-04-06T00:08:57;21.13;;;11.13;;
43678;SDS011;29279;50.858;4.392;2023-04-06T00:11:24;20.10;;;12.27;;
43678;SDS011;29279;50.858;4.392;2023-04-06T00:13:50;23.85;;;11.73;;
43678;SDS011;29279;50.858;4.392;2023-04-06T00:16:15;23.17;;;10.88;;
43678;SDS011;29279;50.858;4.392;2023-04-06T00:18:41;26.08;;;12.15;;
43678;SDS011;29279;50.858;4.392;2023-04-06T00:21:07;27.75;;;11.45;;
43678;SDS011;29279;50.858;4.392;2023-04-06T00:23:33;20.42;;;11.30;;
43678;SDS011;29279;50.858;4.392;2023-04-06T00:25:58;27.02;;;12.70;;
43678;SDS011;29279;50.858;4.392;2023-04-06T00:28:24;24.67;;;11.77;;
43678;SDS011;29279;50.858;4.392;2023-04-06T00:30:54;19.58;;;10.95;;
43678;SDS011;29279;50.858;4.392;2023-04-06T00:33:20;22.70;;;11.98;;
43678;SDS011;29279;50.858;4.392;2023-04-06T00:35:47;25.23;;;12.43;;
43678;SDS011;29279;50.858;4.392;2023-04-06T00:38:13;25.98;;;12.15;;
43678;SDS011;29279;50.858;4.392;2023-04-06T00:40:40;27.85;;;12.75;;
43678;SDS011;29279;50.858;4.392;2023-04-06T00:43:06;22.90;;;11.43;;
43678;SDS011;29279;50.858;4.392;2023-04-06T00:45:33;24.85;;;11.57;;
43678;SDS011;29279;50.858;4.392;2023-04-06T00:47:59;28.50;;;13.43;;
43678;SDS011;29279;50.858;4.392;2023-04-06T00:50:26;38.60;;;12.55;;
43678;SDS011;29279;50.858;4.392;2023-04-06T00:52:52;22.80;;;12.13;;
43678;SDS011;29279;50.858;4.392;2023-04-06T00:55:19;25.17;;;11.88;;
43678;SDS011;29279;50.858;4.392;2023-04-06T00:57:44;23.52;;;12.20;;
43678;SDS011;29279;50.858;4.392;2023-04-06T01:00:10;28.45;;;12.52;;
43678;SDS011;29279;50.858;4.392;2023-04-06T01:02:37;21.70;;;12.73;;
43678;SDS011;29279;50.858;4.392;2023-04-06T01:05:03;25.48;;;12.85;;
43678;SDS011;29279;50.858;4.392;2023-04-06T01:07:29;23.80;;;12.68;;
43678;SDS011;29279;50.858;4.392;2023-04-06T01:09:55;24.08;;;12.68;;
43678;SDS011;29279;50.858;4.392;2023-04-06T01:12:21;26.77;;;13.15;;
43678;SDS011;29279;50.858;4.392;2023-04-06T01:14:47;23.42;;;13.35;;
43678;SDS011;29279;50.858;4.392;2023-04-06T01:17:13;21.42;;;12.07;;
43678;SDS011;29279;50.858;4.392;2023-04-06T01:19:38;21.35;;;12.88;;
43678;SDS011;29279;50.858;4.392;2023-04-06T01:22:05;29.13;;;12.90;;
43678;SDS011;29279;50.858;4.392;2023-04-06T01:24:31;27.35;;;12.13;;
43678;SDS011;29279;50.858;4.392;2023-04-06T01:26:58;25.23;;;13.15;;
43678;SDS011;29279;50.858;4.392;2023-04-06T01:29:23;22.10;;;11.82;;
43678;SDS011;29279;50.858;4.392;2023-04-06T01:31:49;22.23;;;12.07;;
43678;SDS011;29279;50.858;4.392;2023-04-06T01:34:15;30.10;;;13.40;;
43678;SDS011;29279;50.858;4.392;2023-04-06T01:36:41;27.73;;;13.02;;
43678;SDS011;29279;50.858;4.392;2023-04-06T01:39:07;33.30;;;14.00;;
43678;SDS011;29279;50.858;4.392;2023-04-06T01:41:33;27.25;;;13.43;;
43678;SDS011;29279;50.858;4.392;2023-04-06T01:43:58;28.33;;;13.38;;
43678;SDS011;29279;50.858;4.392;2023-04-06T01:46:24;25.50;;;13.13;;
43678;SDS011;29279;50.858;4.392;2023-04-06T01:48:51;28.77;;;12.98;;
43678;SDS011;29279;50.858;4.392;2023-04-06T01:51:17;26.83;;;12.52;;
43678;SDS011;29279;50.858;4.392;2023-04-06T01:53:42;22.98;;;12.93;;
43678;SDS011;29279;50.858;4.392;2023-04-06T01:56:08;26.95;;;14.32;;
43678;SDS011;29279;50.858;4.392;2023-04-06T01:58:34;23.48;;;13.07;;
43678;SDS011;29279;50.858;4.392;2023-04-06T02:01:00;28.15;;;14.57;;
43678;SDS011;29279;50.858;4.392;2023-04-06T02:03:26;22.40;;;13.70;;
43678;SDS011;29279;50.858;4.392;2023-04-06T02:05:52;31.38;;;13.55;;
43678;SDS011;29279;50.858;4.392;2023-04-06T02:08:17;26.98;;;13.85;;
43678;SDS011;29279;50.858;4.392;2023-04-06T02:10:43;26.45;;;13.80;;
43678;SDS011;29279;50.858;4.392;2023-04-06T02:13:09;23.02;;;13.05;;
43678;SDS011;29279;50.858;4.392;2023-04-06T02:15:35;26.48;;;12.98;;
43678;SDS011;29279;50.858;4.392;2023-04-06T02:18:01;24.35;;;14.40;;
43678;SDS011;29279;50.858;4.392;2023-04-06T02:20:26;24.15;;;13.77;;
43678;SDS011;29279;50.858;4.392;2023-04-06T02:22:52;23.92;;;14.25;;
43678;SDS011;29279;50.858;4.392;2023-04-06T02:25:18;24.10;;;12.63;;
43678;SDS011;29279;50.858;4.392;2023-04-06T02:27:43;29.45;;;13.73;;
43678;SDS011;29279;50.858;4.392;2023-04-06T02:30:09;31.92;;;14.10;;
43678;SDS011;29279;50.858;4.392;2023-04-06T02:32:35;26.83;;;13.40;;
43678;SDS011;29279;50.858;4.392;2023-04-06T02:35:01;29.30;;;13.82;;
43678;SDS011;29279;50.858;4.392;2023-04-06T02:37:26;24.00;;;13.65;;
43678;SDS011;29279;50.858;4.392;2023-04-06T02:39:52;25.55;;;14.27;;
43678;SDS011;29279;50.858;4.392;2023-04-06T02:42:18;29.02;;;14.32;;
43678;SDS011;29279;50.858;4.392;2023-04-06T02:44:44;26.35;;;14.52;;
43678;SDS011;29279;50.858;4.392;2023-04-06T02:47:10;23.50;;;14.32;;
43678;SDS011;29279;50.858;4.392;2023-04-06T02:49:36;25.42;;;14.70;;
43678;SDS011;29279;50.858;4.392;2023-04-06T02:52:01;24.40;;;13.43;;
43678;SDS011;29279;50.858;4.392;2023-04-06T02:54:28;37.35;;;15.50;;
43678;SDS011;29279;50.858;4.392;2023-04-06T02:56:53;26.52;;;14.73;;
43678;SDS011;29279;50.858;4.392;2023-04-06T02:59:19;24.45;;;13.88;;
43678;SDS011;29279;50.858;4.392;2023-04-06T03:01:45;24.20;;;14.73;;
43678;SDS011;29279;50.858;4.392;2023-04-06T03:04:11;42.55;;;15.18;;
43678;SDS011;29279;50.858;4.392;2023-04-06T03:06:36;33.38;;;15.10;;
43678;SDS011;29279;50.858;4.392;2023-04-06T03:09:02;25.08;;;13.98;;
43678;SDS011;29279;50.858;4.392;2023-04-06T03:11:28;24.55;;;14.15;;
43678;SDS011;29279;50.858;4.392;2023-04-06T03:13:54;23.98;;;14.23;;
43678;SDS011;29279;50.858;4.392;2023-04-06T03:16:20;26.88;;;15.30;;
43678;SDS011;29279;50.858;4.392;2023-04-06T03:18:45;28.20;;;14.05;;
43678;SDS011;29279;50.858;4.392;2023-04-06T03:21:12;23.35;;;13.43;;
43678;SDS011;29279;50.858;4.392;2023-04-06T03:23:40;25.35;;;14.75;;
43678;SDS011;29279;50.858;4.392;2023-04-06T03:26:06;28.55;;;14.55;;
43678;SDS011;29279;50.858;4.392;2023-04-06T03:28:31;26.85;;;15.00;;
43678;SDS011;29279;50.858;4.392;2023-04-06T03:30:57;23.63;;;13.70;;
43678;SDS011;29279;50.858;4.392;2023-04-06T03:33:23;28.95;;;14.48;;
43678;SDS011;29279;50.858;4.392;2023-04-06T03:35:49;23.60;;;14.43;;
43678;SDS011;29279;50.858;4.392;2023-04-06T03:38:14;34.15;;;14.10;;
43678;SDS011;29279;50.858;4.392;2023-04-06T03:40:40;24.60;;;13.32;;
43678;SDS011;29279;50.858;4.392;2023-04-06T03:43:07;25.77;;;14.25;;
43678;SDS011;29279;50.858;4.392;2023-04-06T03:45:34;28.35;;;14.38;;
43678;SDS011;29279;50.858;4.392;2023-04-06T03:47:59;28.45;;;15.40;;
43678;SDS011;29279;50.858;4.392;2023-04-06T03:50:25;24.58;;;14.70;;
43678;SDS011;29279;50.858;4.392;2023-04-06T03:52:51;23.40;;;14.45;;
43678;SDS011;29279;50.858;4.392;2023-04-06T03:55:16;23.85;;;14.57;;
43678;SDS011;29279;50.858;4.392;2023-04-06T03:57:42;23.00;;;14.07;;
43678;SDS011;29279;50.858;4.392;2023-04-06T04:00:08;23.05;;;14.63;;
43678;SDS011;29279;50.858;4.392;2023-04-06T04:02:34;28.25;;;15.40;;
43678;SDS011;29279;50.858;4.392;2023-04-06T04:05:00;31.08;;;15.02;;
43678;SDS011;29279;50.858;4.392;2023-04-06T04:07:26;27.52;;;14.57;;
43678;SDS011;29279;50.858;4.392;2023-04-06T04:09:52;24.05;;;14.73;;
43678;SDS011;29279;50.858;4.392;2023-04-06T04:12:17;26.60;;;14.30;;
43678;SDS011;29279;50.858;4.392;2023-04-06T04:14:43;28.33;;;15.25;;
43678;SDS011;29279;50.858;4.392;2023-04-06T04:17:09;29.15;;;15.00;;
43678;SDS011;29279;50.858;4.392;2023-04-06T04:19:35;28.35;;;14.82;;
43678;SDS011;29279;50.858;4.392;2023-04-06T04:22:00;26.80;;;15.13;;
43678;SDS011;29279;50.858;4.392;2023-04-06T04:24:29;24.05;;;13.65;;
43678;SDS011;29279;50.858;4.392;2023-04-06T04:26:58;32.10;;;15.25;;
43678;SDS011;29279;50.858;4.392;2023-04-06T04:29:25;24.17;;;14.48;;
43678;SDS011;29279;50.858;4.392;2023-04-06T04:31:51;25.30;;;15.32;;
43678;SDS011;29279;50.858;4.392;2023-04-06T04:34:17;32.65;;;15.20;;
43678;SDS011;29279;50.858;4.392;2023-04-06T04:36:48;33.67;;;15.82;;
43678;SDS011;29279;50.858;4.392;2023-04-06T04:39:18;27.88;;;15.13;;
43678;SDS011;29279;50.858;4.392;2023-04-06T04:41:43;28.15;;;16.15;;
43678;SDS011;29279;50.858;4.392;2023-04-06T04:44:09;30.77;;;16.02;;
43678;SDS011;29279;50.858;4.392;2023-04-06T04:46:35;30.48;;;15.45;;
43678;SDS011;29279;50.858;4.392;2023-04-06T04:49:01;31.50;;;14.98;;
43678;SDS011;29279;50.858;4.392;2023-04-06T04:51:26;29.20;;;16.15;;
43678;SDS011;29279;50.858;4.392;2023-04-06T04:53:52;28.30;;;14.95;;
43678;SDS011;29279;50.858;4.392;2023-04-06T04:56:18;30.77;;;16.63;;
43678;SDS011;29279;50.858;4.392;2023-04-06T04:58:44;30.25;;;16.45;;
43678;SDS011;29279;50.858;4.392;2023-04-06T05:01:10;29.95;;;16.65;;
43678;SDS011;29279;50.858;4.392;2023-04-06T05:03:36;27.73;;;15.73;;
43678;SDS011;29279;50.858;4.392;2023-04-06T05:06:03;26.50;;;15.88;;
43678;SDS011;29279;50.858;4.392;2023-04-06T05:08:30;24.55;;;15.20;;
43678;SDS011;29279;50.858;4.392;2023-04-06T05:10:55;32.25;;;16.42;;
43678;SDS011;29279;50.858;4.392;2023-04-06T05:13:21;28.55;;;15.65;;
43678;SDS011;29279;50.858;4.392;2023-04-06T05:15:47;32.13;;;16.00;;
43678;SDS011;29279;50.858;4.392;2023-04-06T05:18:13;32.67;;;17.02;;
43678;SDS011;29279;50.858;4.392;2023-04-06T05:20:39;27.35;;;15.65;;
43678;SDS011;29279;50.858;4.392;2023-04-06T05:23:04;42.72;;;17.35;;
43678;SDS011;29279;50.858;4.392;2023-04-06T05:25:30;36.70;;;16.02;;
43678;SDS011;29279;50.858;4.392;2023-04-06T05:27:57;28.33;;;17.35;;
43678;SDS011;29279;50.858;4.392;2023-04-06T05:30:23;37.30;;;16.55;;
43678;SDS011;29279;50.858;4.392;2023-04-06T05:32:50;32.10;;;16.40;;
43678;SDS011;29279;50.858;4.392;2023-04-06T05:35:16;31.33;;;16.63;;
43678;SDS011;29279;50.858;4.392;2023-04-06T05:37:42;36.78;;;15.82;;
43678;SDS011;29279;50.858;4.392;2023-04-06T05:40:08;34.75;;;17.55;;
43678;SDS011;29279;50.858;4.392;2023-04-06T05:42:37;36.80;;;17.35;;
43678;SDS011;29279;50.858;4.392;2023-04-06T05:45:04;28.55;;;16.77;;
43678;SDS011;29279;50.858;4.392;2023-04-06T05:47:32;35.10;;;17.80;;
43678;SDS011;29279;50.858;4.392;2023-04-06T05:49:58;31.65;;;16.15;;
43678;SDS011;29279;50.858;4.392;2023-04-06T05:52:24;33.90;;;15.55;;
43678;SDS011;29279;50.858;4.392;2023-04-06T05:54:49;34.63;;;16.45;;
43678;SDS011;29279;50.858;4.392;2023-04-06T05:57:15;39.20;;;17.25;;
43678;SDS011;29279;50.858;4.392;2023-04-06T05:59:44;36.47;;;16.73;;
43678;SDS011;29279;50.858;4.392;2023-04-06T06:02:10;37.10;;;16.77;;
43678;SDS011;29279;50.858;4.392;2023-04-06T06:04:35;32.60;;;16.67;;
43678;SDS011;29279;50.858;4.392;2023-04-06T06:07:01;40.22;;;17.67;;
43678;SDS011;29279;50.858;4.392;2023-04-06T06:09:27;44.65;;;17.10;;
43678;SDS011;29279;50.858;4.392;2023-04-06T06:11:52;35.63;;;17.48;;
43678;SDS011;29279;50.858;4.392;2023-04-06T06:14:18;34.78;;;17.08;;
43678;SDS011;29279;50.858;4.392;2023-04-06T06:16:45;34.25;;;16.90;;
43678;SDS011;29279;50.858;4.392;2023-04-06T06:19:10;39.97;;;16.75;;
43678;SDS011;29279;50.858;4.392;2023-04-06T06:21:36;31.15;;;16.92;;
43678;SDS011;29279;50.858;4.392;2023-04-06T06:24:02;34.03;;;17.55;;
43678;SDS011;29279;50.858;4.392;2023-04-06T06:26:28;39.63;;;17.27;;
43678;SDS011;29279;50.858;4.392;2023-04-06T06:28:54;37.33;;;16.35;;
43678;SDS011;29279;50.858;4.392;2023-04-06T06:31:20;26.88;;;16.58;;
43678;SDS011;29279;50.858;4.392;2023-04-06T06:33:47;41.60;;;17.73;;
43678;SDS011;29279;50.858;4.392;2023-04-06T06:36:19;37.20;;;17.58;;
43678;SDS011;29279;50.858;4.392;2023-04-06T06:38:45;33.42;;;15.70;;
43678;SDS011;29279;50.858;4.392;2023-04-06T06:41:10;32.22;;;17.17;;
43678;SDS011;29279;50.858;4.392;2023-04-06T06:43:37;42.58;;;15.90;;
43678;SDS011;29279;50.858;4.392;2023-04-06T06:46:03;41.17;;;17.50;;
43678;SDS011;29279;50.858;4.392;2023-04-06T06:48:29;30.20;;;15.23;;
43678;SDS011;29279;50.858;4.392;2023-04-06T06:50:55;39.05;;;17.52;;
43678;SDS011;29279;50.858;4.392;2023-04-06T06:53:22;40.35;;;17.42;;
43678;SDS011;29279;50.858;4.392;2023-04-06T06:55:48;37.03;;;17.23;;
43678;SDS011;29279;50.858;4.392;2023-04-06T06:58:14;29.83;;;15.95;;
43678;SDS011;29279;50.858;4.392;2023-04-06T07:00:40;32.20;;;16.27;;
43678;SDS011;29279;50.858;4.392;2023-04-06T07:03:05;27.80;;;16.38;;
43678;SDS011;29279;50.858;4.392;2023-04-06T07:05:31;50.35;;;18.75;;
43678;SDS011;29279;50.858;4.392;2023-04-06T07:07:57;36.17;;;15.88;;
43678;SDS011;29279;50.858;4.392;2023-04-06T07:10:23;30.95;;;15.88;;
43678;SDS011;29279;50.858;4.392;2023-04-06T07:12:48;32.60;;;16.85;;
43678;SDS011;29279;50.858;4.392;2023-04-06T07:15:14;30.40;;;15.55;;
43678;SDS011;29279;50.858;4.392;2023-04-06T07:17:41;27.90;;;15.88;;
43678;SDS011;29279;50.858;4.392;2023-04-06T07:20:07;31.52;;;16.60;;
43678;SDS011;29279;50.858;4.392;2023-04-06T07:22:32;24.85;;;14.40;;
43678;SDS011;29279;50.858;4.392;2023-04-06T07:24:59;32.63;;;14.50;;
43678;SDS011;29279;50.858;4.392;2023-04-06T07:27:25;26.70;;;13.50;;
43678;SDS011;29279;50.858;4.392;2023-04-06T07:29:51;25.20;;;13.68;;
43678;SDS011;29279;50.858;4.392;2023-04-06T07:32:16;24.73;;;14.13;;
43678;SDS011;29279;50.858;4.392;2023-04-06T07:34:42;27.05;;;13.30;;
43678;SDS011;29279;50.858;4.392;2023-04-06T07:37:10;17.95;;;11.25;;
43678;SDS011;29279;50.858;4.392;2023-04-06T07:39:35;23.15;;;11.27;;
43678;SDS011;29279;50.858;4.392;2023-04-06T07:42:01;20.63;;;10.50;;
43678;SDS011;29279;50.858;4.392;2023-04-06T07:44:27;19.20;;;11.52;;
43678;SDS011;29279;50.858;4.392;2023-04-06T07:46:52;22.65;;;11.77;;
43678;SDS011;29279;50.858;4.392;2023-04-06T07:49:18;21.25;;;10.85;;
43678;SDS011;29279;50.858;4.392;2023-04-06T07:51:45;18.40;;;10.18;;
43678;SDS011;29279;50.858;4.392;2023-04-06T07:54:11;49.42;;;14.40;;
43678;SDS011;29279;50.858;4.392;2023-04-06T07:56:37;63.38;;;17.48;;
43678;SDS011;29279;50.858;4.392;2023-04-06T07:59:02;19.95;;;11.18;;
43678;SDS011;29279;50.858;4.392;2023-04-06T08:01:28;17.42;;;10.38;;
43678;SDS011;29279;50.858;4.392;2023-04-06T08:03:55;25.13;;;11.43;;
43678;SDS011;29279;50.858;4.392;2023-04-06T08:06:21;19.00;;;10.00;;
43678;SDS011;29279;50.858;4.392;2023-04-06T08:08:47;16.25;;;10.15;;
43678;SDS011;29279;50.858;4.392;2023-04-06T08:11:13;16.35;;;9.80;;
43678;SDS011;29279;50.858;4.392;2023-04-06T08:13:39;21.52;;;10.82;;
43678;SDS011;29279;50.858;4.392;2023-04-06T08:16:04;20.23;;;10.65;;
43678;SDS011;29279;50.858;4.392;2023-04-06T08:18:31;48.83;;;14.18;;
43678;SDS011;29279;50.858;4.392;2023-04-06T08:20:56;35.20;;;14.57;;
43678;SDS011;29279;50.858;4.392;2023-04-06T08:23:22;29.67;;;12.10;;
43678;SDS011;29279;50.858;4.392;2023-04-06T08:25:48;17.20;;;9.70;;
43678;SDS011;29279;50.858;4.392;2023-04-06T08:28:13;20.38;;;10.18;;
43678;SDS011;29279;50.858;4.392;2023-04-06T08:30:42;17.48;;;9.90;;
43678;SDS011;29279;50.858;4.392;2023-04-06T08:33:08;16.23;;;10.35;;
43678;SDS011;29279;50.858;4.392;2023-04-06T08:35:35;17.17;;;9.93;;
43678;SDS011;29279;50.858;4.392;2023-04-06T08:38:01;18.70;;;10.13;;
43678;SDS011;29279;50.858;4.392;2023-04-06T08:40:27;25.40;;;10.70;;
43678;SDS011;29279;50.858;4.392;2023-04-06T08:42:54;17.70;;;11.02;;
43678;SDS011;29279;50.858;4.392;2023-04-06T08:45:21;21.23;;;11.55;;
43678;SDS011;29279;50.858;4.392;2023-04-06T08:47:50;28.25;;;11.63;;
43678;SDS011;29279;50.858;4.392;2023-04-06T08:50:20;23.98;;;12.55;;
43678;SDS011;29279;50.858;4.392;2023-04-06T08:52:49;27.90;;;14.68;;
43678;SDS011;29279;50.858;4.392;2023-04-06T08:55:15;26.02;;;12.77;;
43678;SDS011;29279;50.858;4.392;2023-04-06T08:57:41;22.92;;;12.45;;
43678;SDS011;29279;50.858;4.392;2023-04-06T09:00:09;21.10;;;12.68;;
43678;SDS011;29279;50.858;4.392;2023-04-06T09:02:38;24.55;;;12.70;;
43678;SDS011;29279;50.858;4.392;2023-04-06T09:05:06;20.15;;;12.30;;
43678;SDS011;29279;50.858;4.392;2023-04-06T09:07:35;23.55;;;11.27;;
43678;SDS011;29279;50.858;4.392;2023-04-06T09:10:01;26.73;;;12.65;;
43678;SDS011;29279;50.858;4.392;2023-04-06T09:12:27;28.33;;;14.00;;
43678;SDS011;29279;50.858;4.392;2023-04-06T09:14:54;28.70;;;14.02;;
43678;SDS011;29279;50.858;4.392;2023-04-06T09:17:21;26.40;;;12.77;;
43678;SDS011;29279;50.858;4.392;2023-04-06T09:19:48;22.95;;;13.00;;
43678;SDS011;29279;50.858;4.392;2023-04-06T09:22:14;25.10;;;11.73;;
43678;SDS011;29279;50.858;4.392;2023-04-06T09:24:44;20.98;;;12.15;;
43678;SDS011;29279;50.858;4.392;2023-04-06T09:27:14;21.70;;;12.13;;
43678;SDS011;29279;50.858;4.392;2023-04-06T09:29:43;21.15;;;11.73;;
43678;SDS011;29279;50.858;4.392;2023-04-06T09:32:10;21.02;;;10.57;;
43678;SDS011;29279;50.858;4.392;2023-04-06T09:34:37;17.52;;;10.95;;
43678;SDS011;29279;50.858;4.392;2023-04-06T09:37:16;18.67;;;10.88;;
43678;SDS011;29279;50.858;4.392;2023-04-06T09:39:43;18.80;;;10.30;;
43678;SDS011;29279;50.858;4.392;2023-04-06T09:42:11;22.35;;;11.90;;
43678;SDS011;29279;50.858;4.392;2023-04-06T09:44:50;15.63;;;9.18;;
43678;SDS011;29279;50.858;4.392;2023-04-06T09:47:16;20.73;;;11.13;;
43678;SDS011;29279;50.858;4.392;2023-04-06T09:49:43;15.52;;;8.98;;
43678;SDS011;29279;50.858;4.392;2023-04-06T09:52:11;18.65;;;10.20;;
43678;SDS011;29279;50.858;4.392;2023-04-06T09:54:37;17.92;;;10.60;;
43678;SDS011;29279;50.858;4.392;2023-04-06T10:02:44;18.10;;;10.02;;
43678;SDS011;29279;50.858;4.392;2023-04-06T10:08:11;20.88;;;10.65;;
43678;SDS011;29279;50.858;4.392;2023-04-06T10:10:39;16.92;;;10.20;;
43678;SDS011;29279;50.858;4.392;2023-04-06T10:13:05;22.40;;;11.82;;
43678;SDS011;29279;50.858;4.392;2023-04-06T10:15:31;20.23;;;10.32;;
43678;SDS011;29279;50.858;4.392;2023-04-06T10:17:57;22.17;;;12.38;;
43678;SDS011;29279;50.858;4.392;2023-04-06T10:25:39;20.65;;;11.40;;
43678;SDS011;29279;50.858;4.392;2023-04-06T10:28:05;19.08;;;11.45;;
43678;SDS011;29279;50.858;4.392;2023-04-06T10:30:32;19.15;;;12.05;;
43678;SDS011;29279;50.858;4.392;2023-04-06T10:32:59;17.58;;;11.68;;
43678;SDS011;29279;50.858;4.392;2023-04-06T10:35:25;22.27;;;11.20;;
43678;SDS011;29279;50.858;4.392;2023-04-06T10:38:03;20.92;;;11.82;;
43678;SDS011;29279;50.858;4.392;2023-04-06T10:40:30;19.77;;;11.43;;
43678;SDS011;29279;50.858;4.392;2023-04-06T10:43:08;19.95;;;11.50;;
43678;SDS011;29279;50.858;4.392;2023-04-06T10:45:35;20.23;;;12.30;;
43678;SDS011;29279;50.858;4.392;2023-04-06T10:48:12;22.30;;;12.05;;
43678;SDS011;29279;50.858;4.392;2023-04-06T10:50:47;20.20;;;12.45;;
43678;SDS011;29279;50.858;4.392;2023-04-06T10:53:21;17.30;;;11.18;;
43678;SDS011;29279;50.858;4.392;2023-04-06T10:55:54;20.58;;;11.80;;
43678;SDS011;29279;50.858;4.392;2023-04-06T10:58:24;22.92;;;12.20;;
43678;SDS011;29279;50.858;4.392;2023-04-06T11:00:52;22.00;;;13.68;;
43678;SDS011;29279;50.858;4.392;2023-04-06T11:03:20;21.27;;;12.55;;
43678;SDS011;29279;50.858;4.392;2023-04-06T11:05:50;18.58;;;11.20;;
43678;SDS011;29279;50.858;4.392;2023-04-06T11:10:51;20.75;;;11.80;;
43678;SDS011;29279;50.858;4.392;2023-04-06T11:13:57;20.67;;;12.52;;
43678;SDS011;29279;50.858;4.392;2023-04-06T11:16:27;23.00;;;12.57;;
43678;SDS011;29279;50.858;4.392;2023-04-06T11:18:56;24.67;;;12.18;;
43678;SDS011;29279;50.858;4.392;2023-04-06T11:21:39;29.20;;;11.73;;
43678;SDS011;29279;50.858;4.392;2023-04-06T11:24:15;18.88;;;11.55;;
43678;SDS011;29279;50.858;4.392;2023-04-06T11:26:55;20.55;;;13.20;;
43678;SDS011;29279;50.858;4.392;2023-04-06T11:29:24;21.98;;;12.27;;
43678;SDS011;29279;50.858;4.392;2023-04-06T11:31:58;18.13;;;11.70;;
43678;SDS011;29279;50.858;4.392;2023-04-06T11:34:25;19.63;;;12.48;;
43678;SDS011;29279;50.858;4.392;2023-04-06T11:36:54;19.77;;;12.43;;
43678;SDS011;29279;50.858;4.392;2023-04-06T11:39:24;18.45;;;11.50;;
43678;SDS011;29279;50.858;4.392;2023-04-06T11:42:01;20.85;;;11.43;;
43678;SDS011;29279;50.858;4.392;2023-04-06T11:44:34;23.90;;;12.90;;
43678;SDS011;29279;50.858;4.392;2023-04-06T11:47:02;24.60;;;12.85;;
43678;SDS011;29279;50.858;4.392;2023-04-06T11:49:30;20.13;;;12.77;;
43678;SDS011;29279;50.858;4.392;2023-04-06T11:51:57;21.77;;;12.32;;
43678;SDS011;29279;50.858;4.392;2023-04-06T11:54:33;25.88;;;12.95;;
43678;SDS011;29279;50.858;4.392;2023-04-06T11:57:03;23.77;;;13.77;;
43678;SDS011;29279;50.858;4.392;2023-04-06T11:59:33;20.05;;;13.57;;
43678;SDS011;29279;50.858;4.392;2023-04-06T12:02:00;26.83;;;13.95;;
43678;SDS011;29279;50.858;4.392;2023-04-06T12:04:27;22.75;;;13.93;;
43678;SDS011;29279;50.858;4.392;2023-04-06T12:06:53;25.52;;;14.40;;
43678;SDS011;29279;50.858;4.392;2023-04-06T12:09:19;21.05;;;12.70;;
43678;SDS011;29279;50.858;4.392;2023-04-06T12:11:45;21.15;;;13.73;;
43678;SDS011;29279;50.858;4.392;2023-04-06T12:14:11;23.67;;;13.00;;
43678;SDS011;29279;50.858;4.392;2023-04-06T12:16:39;19.88;;;13.68;;
43678;SDS011;29279;50.858;4.392;2023-04-06T12:19:05;23.50;;;14.25;;
43678;SDS011;29279;50.858;4.392;2023-04-06T12:21:31;23.38;;;14.52;;
43678;SDS011;29279;50.858;4.392;2023-04-06T12:23:58;21.67;;;14.35;;
43678;SDS011;29279;50.858;4.392;2023-04-06T12:26:24;25.80;;;15.75;;
43678;SDS011;29279;50.858;4.392;2023-04-06T12:28:50;21.48;;;14.32;;
43678;SDS011;29279;50.858;4.392;2023-04-06T12:31:16;24.02;;;13.57;;
43678;SDS011;29279;50.858;4.392;2023-04-06T12:33:44;21.70;;;14.32;;
43678;SDS011;29279;50.858;4.392;2023-04-06T12:36:12;22.00;;;13.48;;
43678;SDS011;29279;50.858;4.392;2023-04-06T12:38:39;24.23;;;14.63;;
43678;SDS011;29279;50.858;4.392;2023-04-06T12:41:05;26.35;;;14.70;;
43678;SDS011;29279;50.858;4.392;2023-04-06T12:43:32;29.15;;;14.15;;
43678;SDS011;29279;50.858;4.392;2023-04-06T12:45:57;27.70;;;15.85;;
43678;SDS011;29279;50.858;4.392;2023-04-06T12:48:24;22.10;;;14.68;;
43678;SDS011;29279;50.858;4.392;2023-04-06T12:50:59;23.90;;;14.45;;
43678;SDS011;29279;50.858;4.392;2023-04-06T12:53:26;26.67;;;14.05;;
43678;SDS011;29279;50.858;4.392;2023-04-06T12:55:55;33.45;;;16.05;;
43678;SDS011;29279;50.858;4.392;2023-04-06T12:58:22;24.70;;;15.10;;
43678;SDS011;29279;50.858;4.392;2023-04-06T13:00:49;25.90;;;15.63;;
43678;SDS011;29279;50.858;4.392;2023-04-06T13:03:15;27.42;;;16.42;;
43678;SDS011;29279;50.858;4.392;2023-04-06T13:05:46;25.20;;;16.02;;
43678;SDS011;29279;50.858;4.392;2023-04-06T13:08:12;24.30;;;14.43;;
43678;SDS011;29279;50.858;4.392;2023-04-06T13:10:48;23.75;;;15.27;;
43678;SDS011;29279;50.858;4.392;2023-04-06T13:13:16;25.63;;;15.60;;
43678;SDS011;29279;50.858;4.392;2023-04-06T13:15:42;24.48;;;14.55;;
43678;SDS011;29279;50.858;4.392;2023-04-06T13:18:08;24.95;;;14.98;;
43678;SDS011;29279;50.858;4.392;2023-04-06T13:20:34;26.65;;;15.43;;
43678;SDS011;29279;50.858;4.392;2023-04-06T13:23:01;24.80;;;15.57;;
43678;SDS011;29279;50.858;4.392;2023-04-06T13:25:26;22.10;;;15.60;;
43678;SDS011;29279;50.858;4.392;2023-04-06T13:27:53;23.85;;;14.93;;
43678;SDS011;29279;50.858;4.392;2023-04-06T13:30:19;29.42;;;16.08;;
43678;SDS011;29279;50.858;4.392;2023-04-06T13:32:45;29.92;;;15.20;;
43678;SDS011;29279;50.858;4.392;2023-04-06T13:35:11;25.70;;;15.02;;
43678;SDS011;29279;50.858;4.392;2023-04-06T13:37:37;23.02;;;14.85;;
43678;SDS011;29279;50.858;4.392;2023-04-06T13:40:03;22.58;;;15.13;;
43678;SDS011;29279;50.858;4.392;2023-04-06T13:42:31;24.05;;;15.57;;
43678;SDS011;29279;50.858;4.392;2023-04-06T13:44:57;36.15;;;17.45;;
43678;SDS011;29279;50.858;4.392;2023-04-06T13:47:24;77.53;;;23.60;;
43678;SDS011;29279;50.858;4.392;2023-04-06T13:49:50;25.42;;;16.33;;
43678;SDS011;29279;50.858;4.392;2023-04-06T13:52:17;25.08;;;15.32;;
43678;SDS011;29279;50.858;4.392;2023-04-06T13:54:43;24.00;;;15.60;;
43678;SDS011;29279;50.858;4.392;2023-04-06T13:57:09;23.95;;;14.00;;
43678;SDS011;29279;50.858;4.392;2023-04-06T13:59:37;26.85;;;15.90;;
43678;SDS011;29279;50.858;4.392;2023-04-06T14:02:04;23.20;;;15.60;;
43678;SDS011;29279;50.858;4.392;2023-04-06T14:04:31;26.92;;;16.23;;
43678;SDS011;29279;50.858;4.392;2023-04-06T14:06:58;25.80;;;15.30;;
43678;SDS011;29279;50.858;4.392;2023-04-06T14:09:24;25.42;;;15.80;;
43678;SDS011;29279;50.858;4.392;2023-04-06T14:11:52;26.75;;;17.13;;
43678;SDS011;29279;50.858;4.392;2023-04-06T14:14:18;30.23;;;18.38;;
43678;SDS011;29279;50.858;4.392;2023-04-06T14:16:44;27.33;;;17.77;;
43678;SDS011;29279;50.858;4.392;2023-04-06T14:19:10;29.38;;;18.23;;
43678;SDS011;29279;50.858;4.392;2023-04-06T14:21:40;26.77;;;18.60;;
43678;SDS011;29279;50.858;4.392;2023-04-06T14:24:10;29.17;;;17.48;;
43678;SDS011;29279;50.858;4.392;2023-04-06T14:26:36;29.58;;;18.13;;
43678;SDS011;29279;50.858;4.392;2023-04-06T14:29:05;29.50;;;18.60;;
43678;SDS011;29279;50.858;4.392;2023-04-06T14:31:31;29.42;;;17.15;;
43678;SDS011;29279;50.858;4.392;2023-04-06T14:33:57;28.13;;;18.10;;
43678;SDS011;29279;50.858;4.392;2023-04-06T14:36:23;27.70;;;17.73;;